sensor_id;sensor_type;location;lat;lon;timestamp;pressure;altitude;pressure_sealevel;temperature;humidity
49044;BME280;34860;48.066;14.124;2023-04-26T00:01:18;96400.28;;;7.96;59.54
49044;BME280;34860;48.066;14.124;2023-04-26T00:04:07;96405.47;;;7.94;59.51
49044;BME280;34860;48.066;14.124;2023-04-26T00:06:56;96402.34;;;7.92;59.44
49044;BME280;34860;48.066;14.124;2023-04-26T00:09:51;96407.88;;;7.92;59.45
49044;BME280;34860;48.066;14.124;2023-04-26T00:12:41;96414.63;;;7.91;59.46
49044;BME280;34860;48.066;14.124;2023-04-26T00:15:30;96406.41;;;7.87;59.54
49044;BME280;34860;48.066;14.124;2023-04-26T00:18:21;96408.00;;;7.85;59.33
49044;BME280;34860;48.066;14.124;2023-04-26T00:21:13;96411.22;;;7.83;59.52
49044;BME280;34860;48.066;14.124;2023-04-26T00:24:03;96407.31;;;7.80;59.42
49044;BME280;34860;48.066;14.124;2023-04-26T00:26:55;96409.28;;;7.80;59.42
49044;BME280;34860;48.066;14.124;2023-04-26T00:29:45;96407.75;;;7.79;59.48
49044;BME280;34860;48.066;14.124;2023-04-26T00:32:34;96404.19;;;7.78;59.48
49044;BME280;34860;48.066;14.124;2023-04-26T00:35:26;96416.47;;;7.77;59.18
49044;BME280;34860;48.066;14.124;2023-04-26T00:38:16;96409.38;;;7.76;59.41
49044;BME280;34860;48.066;14.124;2023-04-26T00:41:07;96408.94;;;7.78;59.49
49044;BME280;34860;48.066;14.124;2023-04-26T00:43:58;96416.03;;;7.79;59.46
49044;BME280;34860;48.066;14.124;2023-04-26T00:46:48;96405.81;;;7.76;59.34
49044;BME280;34860;48.066;14.124;2023-04-26T00:49:38;96410.50;;;7.79;59.32
49044;BME280;34860;48.066;14.124;2023-04-26T00:52:29;96402.63;;;7.77;59.33
49044;BME280;34860;48.066;14.124;2023-04-26T00:55:20;96406.16;;;7.78;59.43
49044;BME280;34860;48.066;14.124;2023-04-26T00:58:08;96410.13;;;7.77;59.36
49044;BME280;34860;48.066;14.124;2023-04-26T01:01:00;96416.47;;;7.77;59.39
49044;BME280;34860;48.066;14.124;2023-04-26T01:03:49;96409.72;;;7.78;59.38
49044;BME280;34860;48.066;14.124;2023-04-26T01:06:41;96407.38;;;7.77;59.38
49044;BME280;34860;48.066;14.124;2023-04-26T01:09:31;96403.81;;;7.76;59.50
49044;BME280;34860;48.066;14.124;2023-04-26T01:12:20;96393.53;;;7.77;59.38
49044;BME280;34860;48.066;14.124;2023-04-26T01:15:10;96392.75;;;7.76;59.52
49044;BME280;34860;48.066;14.124;2023-04-26T01:18:02;96397.09;;;7.77;59.46
49044;BME280;34860;48.066;14.124;2023-04-26T01:20:52;96401.41;;;7.78;59.34
49044;BME280;34860;48.066;14.124;2023-04-26T01:23:44;96411.28;;;7.79;59.38
49044;BME280;34860;48.066;14.124;2023-04-26T01:26:32;96417.59;;;7.80;59.33
49044;BME280;34860;48.066;14.124;2023-04-26T01:29:21;96411.28;;;7.79;59.37
49044;BME280;34860;48.066;14.124;2023-04-26T01:32:12;96409.28;;;7.80;59.41
49044;BME280;34860;48.066;14.124;2023-04-26T01:35:01;96412.84;;;7.80;59.38
49044;BME280;34860;48.066;14.124;2023-04-26T01:37:52;96423.50;;;7.82;59.39
49044;BME280;34860;48.066;14.124;2023-04-26T01:40:42;96426.59;;;7.84;59.50
49044;BME280;34860;48.066;14.124;2023-04-26T01:43:32;96432.91;;;7.85;59.45
49044;BME280;34860;48.066;14.124;2023-04-26T01:46:20;96424.19;;;7.86;59.25
49044;BME280;34860;48.066;14.124;2023-04-26T01:49:09;96430.53;;;7.87;59.43
49044;BME280;34860;48.066;14.124;2023-04-26T01:51:58;96432.06;;;7.88;59.46
49044;BME280;34860;48.066;14.124;2023-04-26T01:54:47;96433.28;;;7.87;59.42
49044;BME280;34860;48.066;14.124;2023-04-26T01:57:40;96432.50;;;7.86;59.34
49044;BME280;34860;48.066;14.124;2023-04-26T02:00:29;96441.22;;;7.85;59.28
49044;BME280;34860;48.066;14.124;2023-04-26T02:03:17;96442.88;;;7.82;59.45
49044;BME280;34860;48.066;14.124;2023-04-26T02:06:06;96446.06;;;7.80;59.39
49044;BME280;34860;48.066;14.124;2023-04-26T02:08:55;96439.03;;;7.76;59.42
49044;BME280;34860;48.066;14.124;2023-04-26T02:11:44;96445.41;;;7.73;59.52
49044;BME280;34860;48.066;14.124;2023-04-26T02:14:35;96447.00;;;7.70;59.59
49044;BME280;34860;48.066;14.124;2023-04-26T02:17:24;96449.84;;;7.67;59.59
49044;BME280;34860;48.066;14.124;2023-04-26T02:20:12;96452.31;;;7.61;59.63
49044;BME280;34860;48.066;14.124;2023-04-26T02:23:03;96456.00;;;7.54;59.55
49044;BME280;34860;48.066;14.124;2023-04-26T02:25:53;96450.94;;;7.49;59.67
49044;BME280;34860;48.066;14.124;2023-04-26T02:28:41;96441.91;;;7.45;59.66
49044;BME280;34860;48.066;14.124;2023-04-26T02:31:34;96446.34;;;7.42;59.80
49044;BME280;34860;48.066;14.124;2023-04-26T02:34:23;96437.31;;;7.38;59.69
49044;BME280;34860;48.066;14.124;2023-04-26T02:37:16;96442.91;;;7.35;59.78
49044;BME280;34860;48.066;14.124;2023-04-26T02:40:09;96440.22;;;7.31;59.83
49044;BME280;34860;48.066;14.124;2023-04-26T02:43:01;96444.59;;;7.28;60.06
49044;BME280;34860;48.066;14.124;2023-04-26T02:45:49;96443.47;;;7.26;59.92
49044;BME280;34860;48.066;14.124;2023-04-26T02:48:40;96448.59;;;7.24;60.02
49044;BME280;34860;48.066;14.124;2023-04-26T02:51:32;96446.25;;;7.22;60.00
49044;BME280;34860;48.066;14.124;2023-04-26T02:54:20;96447.09;;;7.19;60.12
49044;BME280;34860;48.066;14.124;2023-04-26T02:57:13;96444.75;;;7.18;60.01
49044;BME280;34860;48.066;14.124;2023-04-26T03:00:10;96437.28;;;7.15;59.93
49044;BME280;34860;48.066;14.124;2023-04-26T03:03:06;96447.59;;;7.14;59.98
49044;BME280;34860;48.066;14.124;2023-04-26T03:05:57;96438.19;;;7.08;60.07
49044;BME280;34860;48.066;14.124;2023-04-26T03:08:45;96442.19;;;7.07;60.06
49044;BME280;34860;48.066;14.124;2023-04-26T03:11:34;96431.16;;;7.03;59.95
49044;BME280;34860;48.066;14.124;2023-04-26T03:14:22;96444.63;;;7.01;60.04
49044;BME280;34860;48.066;14.124;2023-04-26T03:17:15;96445.47;;;6.98;60.11
49044;BME280;34860;48.066;14.124;2023-04-26T03:20:07;96454.22;;;6.93;60.06
49044;BME280;34860;48.066;14.124;2023-04-26T03:22:58;96446.78;;;6.90;60.01
49044;BME280;34860;48.066;14.124;2023-04-26T03:25:46;96455.06;;;6.90;60.16
49044;BME280;34860;48.066;14.124;2023-04-26T03:28:35;96442.09;;;6.87;60.19
49044;BME280;34860;48.066;14.124;2023-04-26T03:31:25;96440.50;;;6.86;60.08
49044;BME280;34860;48.066;14.124;2023-04-26T03:34:16;96444.50;;;6.85;60.20
49044;BME280;34860;48.066;14.124;2023-04-26T03:37:06;96448.44;;;6.84;60.11
49044;BME280;34860;48.066;14.124;2023-04-26T03:39:57;96442.16;;;6.83;60.36
49044;BME280;34860;48.066;14.124;2023-04-26T03:42:46;96453.19;;;6.83;60.22
49044;BME280;34860;48.066;14.124;2023-04-26T03:45:35;96461.47;;;6.83;60.28
49044;BME280;34860;48.066;14.124;2023-04-26T03:48:23;96463.44;;;6.83;60.37
49044;BME280;34860;48.066;14.124;2023-04-26T03:51:13;96467.00;;;6.83;60.21
49044;BME280;34860;48.066;14.124;2023-04-26T03:54:04;96470.53;;;6.84;60.29
49044;BME280;34860;48.066;14.124;2023-04-26T03:56:55;96469.34;;;6.85;60.40
49044;BME280;34860;48.066;14.124;2023-04-26T03:59:44;96468.13;;;6.86;60.43
49044;BME280;34860;48.066;14.124;2023-04-26T04:02:36;96463.41;;;6.86;60.52
49044;BME280;34860;48.066;14.124;2023-04-26T04:05:25;96459.84;;;6.86;60.53
49044;BME280;34860;48.066;14.124;2023-04-26T04:08:13;96466.53;;;6.88;60.48
49044;BME280;34860;48.066;14.124;2023-04-26T04:11:02;96460.66;;;6.86;60.50
49044;BME280;34860;48.066;14.124;2023-04-26T04:13:56;96467.72;;;6.87;60.63
49044;BME280;34860;48.066;14.124;2023-04-26T04:16:47;96476.00;;;6.87;60.48
49044;BME280;34860;48.066;14.124;2023-04-26T04:19:36;96473.63;;;6.89;60.67
49044;BME280;34860;48.066;14.124;2023-04-26T04:22:25;96479.50;;;6.91;60.42
49044;BME280;34860;48.066;14.124;2023-04-26T04:25:14;96482.28;;;6.91;60.48
49044;BME280;34860;48.066;14.124;2023-04-26T04:28:04;96481.84;;;6.93;60.48
49044;BME280;34860;48.066;14.124;2023-04-26T04:30:54;96478.69;;;6.95;60.54
49044;BME280;34860;48.066;14.124;2023-04-26T04:33:43;96484.19;;;6.95;60.57
49044;BME280;34860;48.066;14.124;2023-04-26T04:36:34;96480.25;;;6.96;60.52
49044;BME280;34860;48.066;14.124;2023-04-26T04:39:25;96492.84;;;6.97;60.56
49044;BME280;34860;48.066;14.124;2023-04-26T04:42:15;96495.19;;;6.98;60.62
49044;BME280;34860;48.066;14.124;2023-04-26T04:45:06;96493.22;;;6.99;60.46
49044;BME280;34860;48.066;14.124;2023-04-26T04:47:59;96501.50;;;6.99;60.44
49044;BME280;34860;48.066;14.124;2023-04-26T04:50:49;96501.50;;;6.99;60.47
49044;BME280;34860;48.066;14.124;2023-04-26T04:53:38;96509.38;;;7.00;60.56
49044;BME280;34860;48.066;14.124;2023-04-26T04:56:28;96515.69;;;7.01;60.47
49044;BME280;34860;48.066;14.124;2023-04-26T04:59:17;96505.41;;;7.01;60.25
49044;BME280;34860;48.066;14.124;2023-04-26T05:02:07;96510.94;;;7.01;60.43
49044;BME280;34860;48.066;14.124;2023-04-26T05:04:57;96514.06;;;7.03;60.32
49044;BME280;34860;48.066;14.124;2023-04-26T05:07:47;96523.16;;;7.04;60.23
49044;BME280;34860;48.066;14.124;2023-04-26T05:10:37;96525.91;;;7.04;60.26
49044;BME280;34860;48.066;14.124;2023-04-26T05:13:26;96537.31;;;7.06;60.25
49044;BME280;34860;48.066;14.124;2023-04-26T05:16:15;96529.03;;;7.06;60.29
49044;BME280;34860;48.066;14.124;2023-04-26T05:19:03;96536.13;;;7.07;60.43
49044;BME280;34860;48.066;14.124;2023-04-26T05:21:59;96544.00;;;7.08;60.37
49044;BME280;34860;48.066;14.124;2023-04-26T05:24:49;96539.66;;;7.07;60.23
49044;BME280;34860;48.066;14.124;2023-04-26T05:27:38;96548.31;;;7.09;60.30
49044;BME280;34860;48.066;14.124;2023-04-26T05:30:34;96551.03;;;7.13;60.19
49044;BME280;34860;48.066;14.124;2023-04-26T05:33:32;96547.47;;;7.13;60.20
49044;BME280;34860;48.066;14.124;2023-04-26T05:36:36;96548.69;;;7.12;60.13
49044;BME280;34860;48.066;14.124;2023-04-26T05:39:29;96553.78;;;7.13;60.18
49044;BME280;34860;48.066;14.124;2023-04-26T05:42:18;96558.13;;;7.14;60.08
49044;BME280;34860;48.066;14.124;2023-04-26T05:45:08;96560.13;;;7.14;60.14
49044;BME280;34860;48.066;14.124;2023-04-26T05:47:57;96560.47;;;7.16;60.24
49044;BME280;34860;48.066;14.124;2023-04-26T05:50:47;96561.25;;;7.16;60.22
49044;BME280;34860;48.066;14.124;2023-04-26T05:53:36;96556.88;;;7.19;60.24
49044;BME280;34860;48.066;14.124;2023-04-26T05:56:27;96557.22;;;7.21;60.21
49044;BME280;34860;48.066;14.124;2023-04-26T05:59:16;96565.50;;;7.24;60.37
49044;BME280;34860;48.066;14.124;2023-04-26T06:02:05;96565.50;;;7.24;60.18
49044;BME280;34860;48.066;14.124;2023-04-26T06:04:56;96569.38;;;7.27;60.24
49044;BME280;34860;48.066;14.124;2023-04-26T06:07:45;96574.09;;;7.30;60.35
49044;BME280;34860;48.066;14.124;2023-04-26T06:10:36;96576.44;;;7.32;60.33
49044;BME280;34860;48.066;14.124;2023-04-26T06:13:30;96579.13;;;7.35;60.27
49044;BME280;34860;48.066;14.124;2023-04-26T06:16:21;96575.53;;;7.38;60.28
49044;BME280;34860;48.066;14.124;2023-04-26T06:19:10;96589.31;;;7.42;60.36
49044;BME280;34860;48.066;14.124;2023-04-26T06:22:00;96585.69;;;7.45;60.33
49044;BME280;34860;48.066;14.124;2023-04-26T06:24:48;96587.63;;;7.48;60.39
49044;BME280;34860;48.066;14.124;2023-04-26T06:27:38;96585.19;;;7.54;60.19
49044;BME280;34860;48.066;14.124;2023-04-26T06:30:29;96589.03;;;7.60;60.20
49044;BME280;34860;48.066;14.124;2023-04-26T06:33:19;96586.56;;;7.66;60.08
49044;BME280;34860;48.066;14.124;2023-04-26T06:36:11;96602.72;;;7.71;59.98
49044;BME280;34860;48.066;14.124;2023-04-26T06:39:01;96593.50;;;7.77;59.98
49044;BME280;34860;48.066;14.124;2023-04-26T06:41:51;96596.56;;;7.83;60.03
49044;BME280;34860;48.066;14.124;2023-04-26T06:44:59;96598.00;;;7.91;59.84
49044;BME280;34860;48.066;14.124;2023-04-26T06:47:53;96597.13;;;7.98;59.87
49044;BME280;34860;48.066;14.124;2023-04-26T06:50:44;96602.19;;;8.03;59.75
49044;BME280;34860;48.066;14.124;2023-04-26T06:53:32;96598.91;;;8.08;59.89
49044;BME280;34860;48.066;14.124;2023-04-26T06:56:21;96597.31;;;8.11;59.77
49044;BME280;34860;48.066;14.124;2023-04-26T06:59:11;96600.34;;;8.16;59.80
49044;BME280;34860;48.066;14.124;2023-04-26T07:02:01;96598.31;;;8.21;59.88
49044;BME280;34860;48.066;14.124;2023-04-26T07:04:55;96598.59;;;8.26;59.89
49044;BME280;34860;48.066;14.124;2023-04-26T07:07:44;96606.84;;;8.30;59.78
49044;BME280;34860;48.066;14.124;2023-04-26T07:10:33;96610.31;;;8.34;59.76
49044;BME280;34860;48.066;14.124;2023-04-26T07:13:23;96604.38;;;8.35;59.80
49044;BME280;34860;48.066;14.124;2023-04-26T07:16:11;96611.81;;;8.39;59.94
49044;BME280;34860;48.066;14.124;2023-04-26T07:19:03;96612.56;;;8.43;59.98
49044;BME280;34860;48.066;14.124;2023-04-26T07:21:54;96615.28;;;8.46;59.92
49044;BME280;34860;48.066;14.124;2023-04-26T07:24:44;96611.31;;;8.47;60.05
49044;BME280;34860;48.066;14.124;2023-04-26T07:27:34;96611.25;;;8.51;59.88
49044;BME280;34860;48.066;14.124;2023-04-26T07:30:26;96612.75;;;8.56;60.01
49044;BME280;34860;48.066;14.124;2023-04-26T07:33:14;96614.22;;;8.60;59.89
49044;BME280;34860;48.066;14.124;2023-04-26T07:36:04;96614.94;;;8.64;59.88
49044;BME280;34860;48.066;14.124;2023-04-26T07:38:55;96610.13;;;8.68;59.90
49044;BME280;34860;48.066;14.124;2023-04-26T07:41:44;96611.66;;;8.69;59.99
49044;BME280;34860;48.066;14.124;2023-04-26T07:44:33;96612.81;;;8.72;59.88
49044;BME280;34860;48.066;14.124;2023-04-26T07:47:22;96605.66;;;8.75;59.95
49044;BME280;34860;48.066;14.124;2023-04-26T07:50:15;96608.00;;;8.76;59.88
49044;BME280;34860;48.066;14.124;2023-04-26T07:53:07;96617.41;;;8.79;59.83
49044;BME280;34860;48.066;14.124;2023-04-26T07:55:57;96615.03;;;8.81;60.13
49044;BME280;34860;48.066;14.124;2023-04-26T07:58:51;96618.56;;;8.81;60.18
49044;BME280;34860;48.066;14.124;2023-04-26T08:01:41;96615.44;;;8.79;60.19
49044;BME280;34860;48.066;14.124;2023-04-26T08:04:31;96613.44;;;8.80;60.30
49044;BME280;34860;48.066;14.124;2023-04-26T08:07:23;96621.75;;;8.80;60.21
49044;BME280;34860;48.066;14.124;2023-04-26T08:10:12;96625.31;;;8.80;60.21
49044;BME280;34860;48.066;14.124;2023-04-26T08:13:08;96623.81;;;8.76;60.37
49044;BME280;34860;48.066;14.124;2023-04-26T08:15:58;96628.66;;;8.71;60.40
49044;BME280;34860;48.066;14.124;2023-04-26T08:18:49;96629.94;;;8.67;60.43
49044;BME280;34860;48.066;14.124;2023-04-26T08:21:40;96627.25;;;8.63;60.50
49044;BME280;34860;48.066;14.124;2023-04-26T08:24:30;96633.97;;;8.62;60.47
49044;BME280;34860;48.066;14.124;2023-04-26T08:27:19;96633.97;;;8.62;60.57
49044;BME280;34860;48.066;14.124;2023-04-26T08:30:11;96634.75;;;8.63;60.60
49044;BME280;34860;48.066;14.124;2023-04-26T08:32:59;96635.91;;;8.65;60.56
49044;BME280;34860;48.066;14.124;2023-04-26T08:35:48;96630.72;;;8.67;60.45
49044;BME280;34860;48.066;14.124;2023-04-26T08:38:38;96634.97;;;8.72;60.35
49044;BME280;34860;48.066;14.124;2023-04-26T08:41:29;96635.31;;;8.74;60.27
49044;BME280;34860;48.066;14.124;2023-04-26T08:44:24;96629.31;;;8.79;60.27
49044;BME280;34860;48.066;14.124;2023-04-26T08:47:18;96640.66;;;8.85;60.16
49044;BME280;34860;48.066;14.124;2023-04-26T08:50:15;96629.56;;;8.85;60.25
49044;BME280;34860;48.066;14.124;2023-04-26T08:53:04;96646.94;;;8.89;60.21
49044;BME280;34860;48.066;14.124;2023-04-26T08:55:57;96638.53;;;8.93;60.15
49044;BME280;34860;48.066;14.124;2023-04-26T08:58:47;96640.38;;;8.99;60.16
49044;BME280;34860;48.066;14.124;2023-04-26T09:01:38;96635.97;;;9.02;60.05
49044;BME280;34860;48.066;14.124;2023-04-26T09:04:29;96633.47;;;9.07;60.01
49044;BME280;34860;48.066;14.124;2023-04-26T09:07:27;96626.66;;;9.12;60.05
49044;BME280;34860;48.066;14.124;2023-04-26T09:10:20;96632.91;;;9.16;60.08
49044;BME280;34860;48.066;14.124;2023-04-26T09:13:09;96625.66;;;9.22;60.00
49044;BME280;34860;48.066;14.124;2023-04-26T09:16:00;96631.47;;;9.28;60.00
49044;BME280;34860;48.066;14.124;2023-04-26T09:18:50;96624.19;;;9.34;59.90
49044;BME280;34860;48.066;14.124;2023-04-26T09:21:45;96630.09;;;9.36;59.95
49044;BME280;34860;48.066;14.124;2023-04-26T09:24:47;96621.72;;;9.40;60.07
49044;BME280;34860;48.066;14.124;2023-04-26T09:27:40;96624.75;;;9.45;59.86
49044;BME280;34860;48.066;14.124;2023-04-26T09:30:30;96609.66;;;9.47;59.81
49044;BME280;34860;48.066;14.124;2023-04-26T09:33:25;96621.00;;;9.52;59.80
49044;BME280;34860;48.066;14.124;2023-04-26T09:36:13;96613.75;;;9.58;59.85
49044;BME280;34860;48.066;14.124;2023-04-26T09:39:03;96613.22;;;9.63;59.88
49044;BME280;34860;48.066;14.124;2023-04-26T09:41:52;96614.72;;;9.68;59.68
49044;BME280;34860;48.066;14.124;2023-04-26T09:44:42;96621.31;;;9.74;59.57
49044;BME280;34860;48.066;14.124;2023-04-26T09:47:32;96615.31;;;9.76;59.73
49044;BME280;34860;48.066;14.124;2023-04-26T09:50:26;96618.44;;;9.78;59.75
49044;BME280;34860;48.066;14.124;2023-04-26T09:53:24;96624.78;;;9.78;59.88
49044;BME280;34860;48.066;14.124;2023-04-26T09:56:18;96616.81;;;9.80;59.73
49044;BME280;34860;48.066;14.124;2023-04-26T09:59:08;96619.91;;;9.82;59.87
49044;BME280;34860;48.066;14.124;2023-04-26T10:01:57;96619.06;;;9.86;59.75
49044;BME280;34860;48.066;14.124;2023-04-26T10:04:49;96615.84;;;9.87;59.72
49044;BME280;34860;48.066;14.124;2023-04-26T10:07:40;96618.63;;;9.87;59.66
49044;BME280;34860;48.066;14.124;2023-04-26T10:10:29;96619.00;;;9.89;59.69
49044;BME280;34860;48.066;14.124;2023-04-26T10:13:20;96619.00;;;9.89;59.56
49044;BME280;34860;48.066;14.124;2023-04-26T10:16:09;96615.78;;;9.91;59.60
49044;BME280;34860;48.066;14.124;2023-04-26T10:18:57;96620.09;;;9.92;59.53
49044;BME280;34860;48.066;14.124;2023-04-26T10:21:47;96614.88;;;9.94;59.47
49044;BME280;34860;48.066;14.124;2023-04-26T10:24:38;96622.00;;;9.95;59.50
49044;BME280;34860;48.066;14.124;2023-04-26T10:27:48;96613.69;;;9.95;59.32
49044;BME280;34860;48.066;14.124;2023-04-26T10:30:57;96609.69;;;9.96;59.35
49044;BME280;34860;48.066;14.124;2023-04-26T10:34:18;96615.59;;;9.98;59.38
49044;BME280;34860;48.066;14.124;2023-04-26T10:37:08;96611.19;;;10.00;59.21
49044;BME280;34860;48.066;14.124;2023-04-26T10:40:21;96602.41;;;10.02;59.21
49044;BME280;34860;48.066;14.124;2023-04-26T10:43:28;96606.63;;;10.07;59.14
49044;BME280;34860;48.066;14.124;2023-04-26T10:46:35;96601.78;;;10.11;59.19
49044;BME280;34860;48.066;14.124;2023-04-26T10:49:25;96596.50;;;10.16;59.12
49044;BME280;34860;48.066;14.124;2023-04-26T10:52:15;96600.66;;;10.25;59.06
49044;BME280;34860;48.066;14.124;2023-04-26T10:55:06;96596.06;;;10.34;58.94
49044;BME280;34860;48.066;14.124;2023-04-26T10:57:58;96585.78;;;10.48;58.82
49044;BME280;34860;48.066;14.124;2023-04-26T11:01:05;96590.16;;;10.62;58.80
49044;BME280;34860;48.066;14.124;2023-04-26T11:04:06;96594.56;;;10.76;58.56
49044;BME280;34860;48.066;14.124;2023-04-26T11:07:02;96602.50;;;10.90;58.51
49044;BME280;34860;48.066;14.124;2023-04-26T11:09:51;96592.94;;;11.04;58.37
49044;BME280;34860;48.066;14.124;2023-04-26T11:12:41;96594.84;;;11.20;58.26
49044;BME280;34860;48.066;14.124;2023-04-26T11:15:31;96583.97;;;11.38;58.19
49044;BME280;34860;48.066;14.124;2023-04-26T11:18:24;96586.19;;;11.56;58.10
49044;BME280;34860;48.066;14.124;2023-04-26T11:21:14;96580.84;;;11.75;57.82
49044;BME280;34860;48.066;14.124;2023-04-26T11:24:06;96581.88;;;11.94;57.77
49044;BME280;34860;48.066;14.124;2023-04-26T11:26:57;96578.94;;;12.10;57.52
49044;BME280;34860;48.066;14.124;2023-04-26T11:29:45;96587.13;;;12.27;57.57
49044;BME280;34860;48.066;14.124;2023-04-26T11:32:34;96578.84;;;12.36;57.58
49044;BME280;34860;48.066;14.124;2023-04-26T11:35:23;96578.94;;;12.45;57.58
49044;BME280;34860;48.066;14.124;2023-04-26T11:38:20;96569.09;;;12.53;57.78
49044;BME280;34860;48.066;14.124;2023-04-26T11:41:11;96563.72;;;12.59;57.62
49044;BME280;34860;48.066;14.124;2023-04-26T11:44:01;96571.19;;;12.62;57.55
49044;BME280;34860;48.066;14.124;2023-04-26T11:46:51;96570.59;;;12.67;57.45
49044;BME280;34860;48.066;14.124;2023-04-26T11:49:41;96574.47;;;12.70;57.57
49044;BME280;34860;48.066;14.124;2023-04-26T11:52:30;96569.81;;;12.67;57.60
49044;BME280;34860;48.066;14.124;2023-04-26T11:55:26;96576.63;;;12.66;57.38
49044;BME280;34860;48.066;14.124;2023-04-26T11:58:16;96580.00;;;12.61;57.62
49044;BME280;34860;48.066;14.124;2023-04-26T12:01:06;96579.47;;;12.53;57.65
49044;BME280;34860;48.066;14.124;2023-04-26T12:03:56;96579.59;;;12.49;57.60
49044;BME280;34860;48.066;14.124;2023-04-26T12:06:47;96573.69;;;12.47;57.66
49044;BME280;34860;48.066;14.124;2023-04-26T12:09:39;96571.69;;;12.48;58.00
49044;BME280;34860;48.066;14.124;2023-04-26T12:12:31;96569.22;;;12.50;57.91
49044;BME280;34860;48.066;14.124;2023-04-26T12:15:23;96579.47;;;12.53;57.92
49044;BME280;34860;48.066;14.124;2023-04-26T12:18:12;96568.31;;;12.53;57.78
49044;BME280;34860;48.066;14.124;2023-04-26T12:21:00;96568.63;;;12.55;57.93
49044;BME280;34860;48.066;14.124;2023-04-26T12:23:49;96562.47;;;12.60;57.84
49044;BME280;34860;48.066;14.124;2023-04-26T12:26:43;96557.41;;;12.68;57.83
49044;BME280;34860;48.066;14.124;2023-04-26T12:29:34;96560.28;;;12.77;57.96
49044;BME280;34860;48.066;14.124;2023-04-26T12:32:24;96567.81;;;12.89;57.82
49044;BME280;34860;48.066;14.124;2023-04-26T12:35:15;96565.84;;;12.99;57.64
49044;BME280;34860;48.066;14.124;2023-04-26T12:38:10;96566.38;;;13.07;57.75
49044;BME280;34860;48.066;14.124;2023-04-26T12:41:04;96568.25;;;13.10;57.62
49044;BME280;34860;48.066;14.124;2023-04-26T12:43:52;96569.31;;;13.13;57.55
49044;BME280;34860;48.066;14.124;2023-04-26T12:46:45;96566.41;;;13.16;57.62
49044;BME280;34860;48.066;14.124;2023-04-26T12:49:34;96566.28;;;13.20;57.75
49044;BME280;34860;48.066;14.124;2023-04-26T12:52:23;96566.13;;;13.23;57.78
49044;BME280;34860;48.066;14.124;2023-04-26T12:55:13;96565.69;;;13.25;57.61
49044;BME280;34860;48.066;14.124;2023-04-26T12:58:02;96567.69;;;13.24;57.63
49044;BME280;34860;48.066;14.124;2023-04-26T13:00:50;96567.34;;;13.22;57.59
49044;BME280;34860;48.066;14.124;2023-04-26T13:03:42;96572.31;;;13.18;57.63
49044;BME280;34860;48.066;14.124;2023-04-26T13:06:31;96565.16;;;13.17;57.62
49044;BME280;34860;48.066;14.124;2023-04-26T13:09:20;96567.34;;;13.22;57.54
49044;BME280;34860;48.066;14.124;2023-04-26T13:12:13;96564.63;;;13.32;57.37
49044;BME280;34860;48.066;14.124;2023-04-26T13:15:04;96562.88;;;13.47;57.35
49044;BME280;34860;48.066;14.124;2023-04-26T13:17:55;96558.91;;;13.67;57.20
49044;BME280;34860;48.066;14.124;2023-04-26T13:20:48;96554.91;;;13.86;57.02
49044;BME280;34860;48.066;14.124;2023-04-26T13:23:37;96554.97;;;14.05;56.95
49044;BME280;34860;48.066;14.124;2023-04-26T13:26:26;96557.78;;;14.23;56.97
49044;BME280;34860;48.066;14.124;2023-04-26T13:29:17;96562.91;;;14.43;56.71
49044;BME280;34860;48.066;14.124;2023-04-26T13:32:06;96559.69;;;14.63;56.67
49044;BME280;34860;48.066;14.124;2023-04-26T13:34:55;96558.59;;;14.70;56.49
49044;BME280;34860;48.066;14.124;2023-04-26T13:37:47;96562.00;;;14.74;56.53
49044;BME280;34860;48.066;14.124;2023-04-26T13:40:36;96565.25;;;14.73;56.49
49044;BME280;34860;48.066;14.124;2023-04-26T13:43:24;96561.22;;;14.64;56.40
49044;BME280;34860;48.066;14.124;2023-04-26T13:46:14;96561.69;;;14.53;56.64
49044;BME280;34860;48.066;14.124;2023-04-26T13:49:05;96566.19;;;14.42;56.76
49044;BME280;34860;48.066;14.124;2023-04-26T13:51:57;96555.44;;;14.31;56.79
49044;BME280;34860;48.066;14.124;2023-04-26T13:54:51;96560.25;;;14.21;57.03
49044;BME280;34860;48.066;14.124;2023-04-26T13:57:40;96555.91;;;14.11;56.98
49044;BME280;34860;48.066;14.124;2023-04-26T14:00:31;96559.16;;;14.00;57.25
49044;BME280;34860;48.066;14.124;2023-04-26T14:03:20;96557.44;;;13.93;57.30
49044;BME280;34860;48.066;14.124;2023-04-26T14:06:10;96560.38;;;13.90;57.26
49044;BME280;34860;48.066;14.124;2023-04-26T14:08:58;96551.66;;;13.88;57.33
49044;BME280;34860;48.066;14.124;2023-04-26T14:11:56;96544.19;;;13.85;57.12
49044;BME280;34860;48.066;14.124;2023-04-26T14:14:52;96551.03;;;13.84;57.21
49044;BME280;34860;48.066;14.124;2023-04-26T14:17:40;96547.91;;;13.81;57.23
49044;BME280;34860;48.066;14.124;2023-04-26T14:20:29;96544.81;;;13.79;57.11
49044;BME280;34860;48.066;14.124;2023-04-26T14:23:18;96552.88;;;13.77;57.27
49044;BME280;34860;48.066;14.124;2023-04-26T14:26:08;96554.56;;;13.75;57.15
49044;BME280;34860;48.066;14.124;2023-04-26T14:29:00;96551.63;;;13.69;57.23
49044;BME280;34860;48.066;14.124;2023-04-26T14:31:50;96552.53;;;13.66;57.21
49044;BME280;34860;48.066;14.124;2023-04-26T14:34:41;96543.22;;;13.60;57.03
49044;BME280;34860;48.066;14.124;2023-04-26T14:37:32;96550.63;;;13.54;56.95
49044;BME280;34860;48.066;14.124;2023-04-26T14:40:20;96543.63;;;13.49;56.81
49044;BME280;34860;48.066;14.124;2023-04-26T14:43:09;96549.22;;;13.49;56.96
49044;BME280;34860;48.066;14.124;2023-04-26T14:46:00;96548.00;;;13.50;56.73
49044;BME280;34860;48.066;14.124;2023-04-26T14:48:52;96530.78;;;13.52;56.67
49044;BME280;34860;48.066;14.124;2023-04-26T14:51:41;96529.84;;;13.55;56.45
49044;BME280;34860;48.066;14.124;2023-04-26T14:54:30;96540.13;;;13.58;56.38
49044;BME280;34860;48.066;14.124;2023-04-26T14:57:18;96539.31;;;13.57;56.25
49044;BME280;34860;48.066;14.124;2023-04-26T15:00:09;96538.09;;;13.58;56.27
49044;BME280;34860;48.066;14.124;2023-04-26T15:03:05;96535.28;;;13.58;56.16